Time;durP1;ratioP1;P1;durP2;ratioP2;P2;SDS_P1;SDS_P2;PMS_P1;PMS_P2;Temp;Humidity;BMP_temperature;BMP_pressure;BME280_temperature;BME280_humidity;BME280_pressure;Samples;Min_cycle;Max_cycle;Signal;HPM_P1;HPM_P2
2021/04/25 03:02:39;;;;;;;11.05;7.10;;;;;;;3.42;100.00;100809.34;1606938;87;21281;-72
2021/04/25 03:05:13;;;;;;;11.80;7.30;;;;;;;3.85;100.00;100813.59;1600801;89;21266;-71
2021/04/25 03:07:40;;;;;;;10.82;7.25;;;;;;;3.95;100.00;100816.25;1657080;85;21203;-71
2021/04/25 03:10:11;;;;;;;11.50;7.70;;;;;;;3.93;100.00;100809.91;1656129;85;21279;-72
2021/04/25 03:12:39;;;;;;;12.45;7.28;;;;;;;3.99;100.00;100808.12;1662501;85;21363;-72
2021/04/25 03:15:10;;;;;;;11.53;8.00;;;;;;;4.13;100.00;100816.83;1658221;85;21163;-72
2021/04/25 03:17:40;;;;;;;11.18;7.35;;;;;;;4.36;100.00;100816.20;1629389;85;21576;-73
2021/04/25 03:20:10;;;;;;;10.85;7.40;;;;;;;4.72;100.00;100812.72;1693879;80;22650;-73
2021/04/25 03:22:39;;;;;;;10.93;7.97;;;;;;;5.16;100.00;100818.41;1747794;80;21236;-73
2021/04/25 03:25:11;;;;;;;11.05;7.37;;;;;;;5.76;100.00;100808.76;1738251;80;21176;-72
2021/04/25 03:27:39;;;;;;;10.63;7.67;;;;;;;6.53;100.00;100807.75;1728047;80;21182;-73
2021/04/25 03:30:10;;;;;;;11.85;7.75;;;;;;;7.29;100.00;100810.03;1759118;80;21379;-73
2021/04/25 03:32:38;;;;;;;10.20;7.60;;;;;;;7.98;100.00;100808.46;1747982;80;21191;-73
2021/04/25 03:35:11;;;;;;;10.37;7.20;;;;;;;8.67;100.00;100805.91;1739868;80;21937;-72
2021/04/25 03:37:39;;;;;;;10.73;7.93;;;;;;;9.26;100.00;100814.03;1746473;80;21350;-72
2021/04/25 03:40:10;;;;;;;10.83;7.37;;;;;;;9.84;100.00;100804.44;1768535;80;22044;-73
2021/04/25 03:42:38;;;;;;;10.85;7.15;;;;;;;10.45;100.00;100806.12;1741998;80;21594;-72
2021/04/25 03:45:13;;;;;;;11.97;8.23;;;;;;;11.08;100.00;100801.75;1725480;80;21551;-73
2021/04/25 03:47:45;;;;;;;12.00;7.80;;;;;;;11.59;100.00;100811.16;1731100;80;21489;-73
2021/04/25 03:50:15;;;;;;;12.73;7.70;;;;;;;12.12;99.69;100809.38;1747856;80;21144;-71
2021/04/25 03:52:44;;;;;;;9.93;7.30;;;;;;;12.72;90.20;100818.83;1748326;80;21210;-73
2021/04/25 03:55:17;;;;;;;9.67;6.67;;;;;;;13.26;81.09;100813.69;1726784;80;21242;-74
2021/04/25 03:57:45;;;;;;;9.80;7.17;;;;;;;13.67;74.20;100811.74;1754190;80;21607;-73
2021/04/25 04:00:15;;;;;;;8.87;7.23;;;;;;;14.26;70.41;100808.22;1763433;80;21136;-72
2021/04/25 04:02:43;;;;;;;9.57;6.73;;;;;;;14.98;64.16;100808.23;1733552;80;21614;-72
2021/04/25 04:05:13;;;;;;;9.67;7.10;;;;;;;15.81;59.84;100807.94;1726298;81;21679;-74
2021/04/25 04:07:41;;;;;;;8.90;6.70;;;;;;;16.54;51.09;100815.64;1733354;81;22113;-72
2021/04/25 04:10:11;;;;;;;9.80;6.53;;;;;;;16.94;47.52;100816.30;1732715;82;20952;-74
2021/04/25 04:12:41;;;;;;;8.78;6.47;;;;;;;17.29;44.84;100811.93;1734144;81;21200;-73
2021/04/25 04:15:10;;;;;;;7.87;6.83;;;;;;;17.72;43.54;100815.14;1733091;81;21088;-74
2021/04/25 04:17:38;;;;;;;8.73;7.10;;;;;;;18.18;41.92;100817.38;1721530;81;21069;-72
2021/04/25 04:20:11;;;;;;;10.53;7.03;;;;;;;18.71;39.25;100818.59;1728549;81;22198;-73
2021/04/25 04:22:40;;;;;;;9.87;7.73;;;;;;;19.12;38.68;100823.64;1708182;82;21120;-73
2021/04/25 04:25:10;;;;;;;8.57;7.10;;;;;;;19.40;37.18;100819.06;1721222;81;21532;-74
2021/04/25 04:27:38;;;;;;;9.63;7.40;;;;;;;19.68;36.71;100818.42;1713370;82;21074;-72
2021/04/25 04:30:08;;;;;;;10.13;7.93;;;;;;;19.96;35.40;100816.92;1725233;81;21094;-73
2021/04/25 04:32:36;;;;;;;10.00;8.00;;;;;;;20.05;34.30;100825.61;1733236;81;21176;-73
2021/04/25 04:35:05;;;;;;;8.53;7.07;;;;;;;20.06;33.71;100828.54;1731252;81;21217;-73
2021/04/25 04:37:34;;;;;;;9.37;7.77;;;;;;;20.05;32.94;100823.49;1734156;81;21967;-73
2021/04/25 04:40:05;;;;;;;8.30;6.67;;;;;;;19.97;33.34;100826.49;1728494;81;21668;-73
2021/04/25 04:42:32;;;;;;;8.83;7.03;;;;;;;20.04;33.62;100825.34;1736238;81;21705;-72
2021/04/25 04:45:03;;;;;;;8.20;7.03;;;;;;;20.29;33.16;100821.61;1717070;81;22297;-73
2021/04/25 04:47:32;;;;;;;9.33;6.42;;;;;;;20.47;32.59;100824.10;1734017;82;22139;-73
2021/04/25 04:50:00;;;;;;;7.90;6.42;;;;;;;20.63;32.61;100823.38;1720744;81;21586;-74
2021/04/25 04:52:28;;;;;;;8.78;5.92;;;;;;;20.95;32.38;100816.80;1733910;81;21459;-74
2021/04/25 04:54:57;;;;;;;9.35;7.40;;;;;;;21.43;31.82;100824.28;1720220;81;21783;-73
2021/04/25 04:57:26;;;;;;;7.00;6.05;;;;;;;21.89;30.61;100822.31;1725017;82;22892;-74
2021/04/25 04:59:54;;;;;;;7.30;6.20;;;;;;;22.07;29.47;100826.02;1725946;82;21043;-74
2021/04/25 05:02:24;;;;;;;7.33;6.22;;;;;;;22.06;29.64;100829.73;1748356;80;21514;-73
2021/04/25 05:05:08;;;;;;;8.75;6.15;;;;;;;22.18;29.49;100823.54;1754373;81;21200;-74
2021/04/25 05:07:36;;;;;;;8.20;5.92;;;;;;;22.21;28.32;100817.21;1743441;80;21145;-74
2021/04/25 05:10:06;;;;;;;6.87;6.10;;;;;;;21.90;28.76;100821.29;1744930;80;22636;-74
2021/04/25 05:12:35;;;;;;;7.70;6.20;;;;;;;21.82;29.12;100823.00;1722308;80;21161;-75
2021/04/25 05:15:05;;;;;;;7.10;5.10;;;;;;;;;;1753282;80;21076;-76
2021/04/25 05:17:34;;;;;;;6.80;5.45;;;;;;;22.01;28.71;100820.38;1726906;80;21112;-73
2021/04/25 05:20:04;;;;;;;6.80;5.47;;;;;;;22.17;28.45;100817.95;1737916;80;21225;-73
2021/04/25 05:22:32;;;;;;;9.60;6.22;;;;;;;22.26;27.96;100815.14;1729497;80;21232;-74
2021/04/25 05:25:01;;;;;;;6.22;5.05;;;;;;;22.19;27.58;100819.30;1750075;80;21539;-75
2021/04/25 05:27:29;;;;;;;7.30;5.58;;;;;;;21.96;27.77;100812.33;1740851;80;21129;-74
2021/04/25 05:29:57;;;;;;;7.60;5.67;;;;;;;21.65;28.36;100812.95;1743053;80;21074;-74
2021/04/25 05:32:26;;;;;;;7.70;6.28;;;;;;;21.63;28.49;100814.53;1741082;81;21968;-74
2021/04/25 05:34:54;;;;;;;12.75;11.45;;;;;;;21.76;28.32;100814.70;1719882;82;21381;-74
2021/04/25 05:37:23;;;;;;;7.60;6.65;;;;;;;22.01;28.68;100815.57;1749295;81;21184;-75
2021/04/25 05:39:52;;;;;;;7.95;6.35;;;;;;;22.24;27.68;100809.28;1746363;80;21619;-73
2021/04/25 05:42:20;;;;;;;7.15;5.00;;;;;;;22.12;27.45;100812.00;1739968;80;21053;-74
2021/04/25 05:44:51;;;;;;;6.45;4.60;;;;;;;21.94;27.77;100822.41;1692247;82;21531;-76
2021/04/25 05:47:19;;;;;;;6.55;5.05;;;;;;;22.06;27.74;100814.33;1717127;82;21279;-75
2021/04/25 05:49:48;;;;;;;6.58;4.95;;;;;;;22.06;27.21;100815.12;1702044;82;21095;-76
2021/04/25 05:52:16;;;;;;;6.62;4.42;;;;;;;22.03;27.15;100817.47;1742682;81;21117;-74
2021/04/25 05:54:44;;;;;;;6.90;4.33;;;;;;;21.93;27.01;100810.16;1762032;80;21254;-72
2021/04/25 05:57:13;;;;;;;5.50;4.12;;;;;;;21.95;26.52;100809.41;1753517;80;21140;-70
2021/04/25 05:59:41;;;;;;;5.00;3.83;;;;;;;21.72;26.32;100813.59;1751838;80;21139;-72
2021/04/25 06:02:09;;;;;;;4.92;3.40;;;;;;;21.52;26.34;100812.77;1700326;83;22175;-73
2021/04/25 06:04:41;;;;;;;4.20;3.02;;;;;;;21.58;26.29;100807.28;1692932;84;21424;-73
2021/04/25 06:07:08;;;;;;;4.60;3.25;;;;;;;21.66;25.93;100814.55;1671797;83;21243;-72
2021/04/25 06:09:36;;;;;;;5.37;3.42;;;;;;;21.73;26.22;100802.72;1684556;84;21149;-73
2021/04/25 06:12:06;;;;;;;5.22;2.98;;;;;;;21.78;26.17;100815.25;1688273;83;21584;-73
2021/04/25 06:14:34;;;;;;;3.75;2.60;;;;;;;21.74;26.06;100816.79;1662471;84;21530;-71
2021/04/25 06:17:02;;;;;;;3.98;3.27;;;;;;;21.70;25.85;100817.00;1690973;84;21148;-75
2021/04/25 06:19:31;;;;;;;4.95;3.10;;;;;;;21.64;25.93;100812.68;1693808;83;21580;-76
2021/04/25 06:21:59;;;;;;;4.12;2.85;;;;;;;21.58;26.50;100809.93;1748364;81;21893;-75
2021/04/25 06:24:28;;;;;;;4.20;3.12;;;;;;;21.60;25.78;100808.38;1714197;81;21605;-75
2021/04/25 06:26:56;;;;;;;5.08;2.65;;;;;;;21.70;25.96;100810.36;1696504;82;21090;-75
2021/04/25 06:29:25;;;;;;;5.10;2.58;;;;;;;21.75;25.64;100810.45;1694471;82;21018;-75
2021/04/25 06:31:53;;;;;;;3.72;2.80;;;;;;;21.67;25.84;100812.17;1696033;81;21515;-74
2021/04/25 06:34:22;;;;;;;4.30;2.72;;;;;;;21.60;25.40;100805.20;1694528;82;21203;-75
2021/04/25 06:36:50;;;;;;;4.47;3.02;;;;;;;21.44;25.70;100813.98;1702833;82;21717;-76
2021/04/25 06:39:18;;;;;;;4.10;2.00;;;;;;;21.43;25.78;100813.67;1747471;81;21132;-74
2021/04/25 06:41:46;;;;;;;3.40;2.12;;;;;;;21.41;25.08;100812.33;1746710;80;21151;-75
2021/04/25 06:44:14;;;;;;;3.42;2.10;;;;;;;21.26;24.80;100811.52;1734295;81;21248;-73
2021/04/25 06:46:43;;;;;;;3.87;2.12;;;;;;;21.08;25.24;100806.72;1741551;80;21240;-74
2021/04/25 06:49:11;;;;;;;3.07;2.33;;;;;;;21.17;25.72;100806.31;1739254;80;21190;-72
2021/04/25 06:51:39;;;;;;;3.30;2.20;;;;;;;21.32;25.78;100809.22;1742265;81;21224;-75
2021/04/25 06:54:08;;;;;;;3.10;2.20;;;;;;;21.31;25.31;100812.40;1741458;81;21379;-75
2021/04/25 06:56:38;;;;;;;3.20;2.00;;;;;;;20.98;25.45;100812.36;1739735;81;21674;-75
2021/04/25 06:59:07;;;;;;;4.70;1.97;;;;;;;20.68;24.87;100814.72;1740405;81;21176;-74
2021/04/25 07:01:35;;;;;;;4.00;2.33;;;;;;;20.33;25.50;100808.98;1732206;81;21197;-74
2021/04/25 07:04:05;;;;;;;3.77;2.10;;;;;;;20.08;26.21;100811.92;1756916;80;21243;-74
2021/04/25 07:06:34;;;;;;;3.47;2.10;;;;;;;19.97;26.42;100807.97;1765291;80;21910;-72
2021/04/25 07:09:04;;;;;;;3.13;2.20;;;;;;;19.80;26.55;100806.00;1753415;80;21236;-73
2021/04/25 07:11:33;;;;;;;2.77;1.60;;;;;;;19.83;26.93;100802.10;1771667;80;21243;-74
2021/04/25 07:14:02;;;;;;;4.03;1.73;;;;;;;19.87;26.32;100800.60;1765481;80;21435;-73
2021/04/25 07:16:31;;;;;;;4.10;1.67;;;;;;;19.59;26.01;100805.23;1750897;80;21260;-73
2021/04/25 07:19:00;;;;;;;3.07;1.63;;;;;;;19.18;25.80;100807.70;1709732;82;21675;-79
2021/04/25 07:21:28;;;;;;;2.53;1.40;;;;;;;18.79;25.70;100804.27;1758169;80;21187;-75
2021/04/25 07:23:58;;;;;;;2.30;1.30;;;;;;;18.72;25.13;100804.39;1747412;80;21534;-73
2021/04/25 07:26:27;;;;;;;3.02;1.57;;;;;;;18.91;25.32;100806.47;1753888;80;21532;-74
2021/04/25 07:28:55;;;;;;;3.77;1.60;;;;;;;19.15;26.34;100812.11;1749835;80;21215;-72
2021/04/25 07:31:23;;;;;;;2.43;1.50;;;;;;;19.51;25.66;100805.55;1757450;80;21188;-73
2021/04/25 07:33:52;;;;;;;3.03;1.33;;;;;;;19.93;25.29;100807.63;1756964;80;21152;-73
2021/04/25 07:36:20;;;;;;;2.50;1.63;;;;;;;20.33;24.51;100802.89;1747376;80;21185;-74
2021/04/25 07:38:49;;;;;;;3.00;1.40;;;;;;;20.52;24.57;100799.59;1764109;80;21352;-74
2021/04/25 07:41:17;;;;;;;3.93;2.00;;;;;;;20.97;24.66;100798.30;1752116;80;21137;-74
2021/04/25 07:43:46;;;;;;;2.90;1.60;;;;;;;21.48;23.70;100794.38;1757891;80;21139;-74
2021/04/25 07:46:16;;;;;;;2.20;1.40;;;;;;;21.74;22.90;100793.70;1754940;80;21083;-74
2021/04/25 07:48:44;;;;;;;2.93;1.73;;;;;;;21.62;22.10;100796.98;1759727;80;21159;-75
2021/04/25 07:51:14;;;;;;;2.47;1.50;;;;;;;21.48;22.96;100793.05;1728703;82;21177;-73
2021/04/25 07:53:42;;;;;;;2.13;1.40;;;;;;;21.44;22.23;100796.73;1751275;80;21639;-74
2021/04/25 07:56:12;;;;;;;3.17;1.73;;;;;;;21.41;22.84;100794.56;1764053;80;21065;-71
2021/04/25 07:58:41;;;;;;;4.60;1.70;;;;;;;21.57;22.34;100787.11;1760722;80;21082;-72
2021/04/25 08:01:09;;;;;;;3.90;1.43;;;;;;;21.41;22.15;100784.48;1760139;80;21041;-74
2021/04/25 08:03:37;;;;;;;3.00;1.27;;;;;;;21.14;21.53;100781.91;1732264;80;21226;-71
2021/04/25 08:06:06;;;;;;;4.17;1.60;;;;;;;21.01;22.04;100782.20;1734665;81;21154;-72
2021/04/25 08:08:34;;;;;;;2.60;1.80;;;;;;;20.88;22.23;100771.92;1731248;81;21412;-74
2021/04/25 08:11:03;;;;;;;3.53;1.60;;;;;;;20.67;22.30;100775.23;1729558;81;21690;-71
2021/04/25 08:13:32;;;;;;;3.07;1.40;;;;;;;20.40;22.95;100777.09;1738271;81;21407;-73
2021/04/25 08:16:00;;;;;;;4.30;1.30;;;;;;;20.23;22.94;100777.52;1732154;82;21365;-76
2021/04/25 08:18:29;;;;;;;3.00;1.20;;;;;;;20.11;22.63;100773.06;1725467;82;21068;-74
2021/04/25 08:20:57;;;;;;;2.13;1.20;;;;;;;20.06;23.13;100769.00;1715209;82;21153;-75
2021/04/25 08:23:27;;;;;;;1.93;1.27;;;;;;;20.15;23.39;100766.29;1728164;82;21527;-74
2021/04/25 08:26:01;;;;;;;5.13;1.30;;;;;;;20.30;23.42;100763.64;1739660;81;21069;-74
2021/04/25 08:28:29;;;;;;;1.73;1.10;;;;;;;20.47;22.72;100757.09;1730383;81;21477;-74
2021/04/25 08:30:58;;;;;;;2.90;1.40;;;;;;;20.49;22.20;100753.18;1718806;81;21110;-72
2021/04/25 08:33:27;;;;;;;2.57;1.57;;;;;;;20.37;22.49;100760.34;1730971;82;21531;-72
2021/04/25 08:35:57;;;;;;;3.70;1.30;;;;;;;20.22;22.93;100754.22;1715937;81;21906;-75
2021/04/25 08:38:25;;;;;;;3.37;1.70;;;;;;;20.22;23.26;100756.07;1715697;81;21090;-72
2021/04/25 08:40:55;;;;;;;3.03;1.23;;;;;;;20.24;22.52;100752.69;1720950;82;22158;-75
2021/04/25 08:43:25;;;;;;;3.77;1.80;;;;;;;19.89;22.02;100757.53;1684739;81;21516;-70
2021/04/25 08:45:54;;;;;;;4.13;1.33;;;;;;;19.68;22.63;100759.72;1738335;81;21157;-74
2021/04/25 08:48:25;;;;;;;3.07;1.30;;;;;;;19.67;22.10;100763.41;1734801;82;21208;-74
2021/04/25 08:50:53;;;;;;;2.50;1.22;;;;;;;19.72;21.87;100759.27;1702304;82;21149;-75
2021/04/25 08:53:21;;;;;;;2.23;1.13;;;;;;;19.80;21.91;100748.33;1728096;81;21500;-71
2021/04/25 08:55:51;;;;;;;7.10;1.50;;;;;;;19.99;22.56;100741.85;1733729;82;21627;-77
2021/04/25 08:58:21;;;;;;;2.60;1.20;;;;;;;20.24;22.92;100742.89;1724699;81;21610;-73
2021/04/25 09:00:49;;;;;;;3.27;1.57;;;;;;;20.30;22.65;100739.81;1734863;82;21129;-72
2021/04/25 09:03:19;;;;;;;4.03;1.70;;;;;;;20.30;22.78;100742.46;1726684;80;21436;-73
2021/04/25 09:05:48;;;;;;;2.35;1.12;;;;;;;20.26;22.54;100737.35;1748201;81;21365;-74
2021/04/25 09:08:16;;;;;;;2.57;1.20;;;;;;;20.18;22.02;100739.33;1733613;81;21359;-75
2021/04/25 09:10:47;;;;;;;3.03;1.20;;;;;;;20.13;22.08;100729.17;1758345;81;21157;-74
2021/04/25 09:13:20;;;;;;;2.17;1.20;;;;;;;20.19;22.37;100726.89;1742489;81;21148;-73
2021/04/25 09:15:49;;;;;;;2.90;1.53;;;;;;;20.35;22.79;100728.81;1750720;81;21169;-76
2021/04/25 09:18:32;;;;;;;2.70;0.93;;;;;;;20.56;21.62;100732.66;1744805;80;21372;-72
2021/04/25 09:21:08;;;;;;;2.50;1.03;;;;;;;20.66;21.41;100729.41;1736742;81;21078;-75
2021/04/25 09:23:36;;;;;;;3.60;1.33;;;;;;;20.63;19.82;100728.55;1746881;80;21682;-75
2021/04/25 09:26:06;;;;;;;4.17;1.43;;;;;;;20.41;20.30;100729.70;1757401;81;22504;-72
2021/04/25 09:28:34;;;;;;;3.27;1.43;;;;;;;20.16;20.90;100728.19;1749879;80;21196;-74
2021/04/25 09:31:05;;;;;;;2.87;1.30;;;;;;;19.87;21.75;100729.17;1742349;80;21344;-73
2021/04/25 09:33:56;;;;;;;2.62;1.27;;;;;;;19.71;22.36;100720.63;1761341;80;21626;-74
2021/04/25 09:36:29;;;;;;;1.50;1.02;;;;;;;19.63;22.63;100712.53;1781167;79;28429;-73
2021/04/25 09:39:13;;;;;;;2.60;1.53;;;;;;;19.66;22.90;100714.20;1741885;81;21215;-72
2021/04/25 09:41:41;;;;;;;6.53;2.13;;;;;;;19.81;22.83;100715.53;1738636;80;21528;-70
2021/04/25 09:44:36;;;;;;;6.87;1.63;;;;;;;19.86;22.89;100713.02;1757127;81;21140;-71
2021/04/25 09:47:05;;;;;;;2.90;1.30;;;;;;;19.76;23.14;100715.44;1737135;81;21105;-74
2021/04/25 09:49:49;;;;;;;2.87;1.40;;;;;;;19.65;22.97;100706.48;1759915;81;21231;-72
2021/04/25 09:52:37;;;;;;;5.20;1.43;;;;;;;19.72;22.60;100703.19;1760948;80;21168;-75
2021/04/25 09:55:28;;;;;;;2.50;0.83;;;;;;;19.81;22.25;100703.14;1746855;80;21264;-72
2021/04/25 09:58:08;;;;;;;3.90;1.30;;;;;;;19.68;21.60;100712.11;1748834;81;22094;-74
2021/04/25 10:00:41;;;;;;;4.57;1.17;;;;;;;19.48;21.89;100706.88;1736149;80;21222;-71
2021/04/25 10:03:12;;;;;;;1.93;1.20;;;;;;;19.54;21.67;100700.12;1739236;81;21107;-75
2021/04/25 10:06:04;;;;;;;3.80;1.10;;;;;;;19.67;21.51;100705.22;1713513;82;21080;-74
2021/04/25 10:08:37;;;;;;;1.77;0.80;;;;;;;19.81;21.88;100699.66;1708258;83;21005;-71
2021/04/25 10:11:07;;;;;;;2.03;0.93;;;;;;;19.95;21.41;100706.83;1701645;83;21369;-76
2021/04/25 10:13:44;;;;;;;1.37;0.70;;;;;;;20.12;22.02;100708.52;1701626;83;21135;-73
2021/04/25 10:16:10;;;;;;;2.10;1.07;;;;;;;20.21;21.81;100692.27;1701402;83;21406;-72
2021/04/25 10:18:39;;;;;;;2.97;0.97;;;;;;;20.20;21.44;100691.98;1701802;83;21107;-70
2021/04/25 10:21:07;;;;;;;1.90;0.87;;;;;;;20.13;20.11;100692.92;1679945;84;21883;-74
2021/04/25 10:23:36;;;;;;;2.73;0.63;;;;;;;19.93;19.99;100692.00;1701192;83;21495;-73
2021/04/25 10:26:10;;;;;;;1.30;0.70;;;;;;;19.77;19.22;100693.23;1640201;86;21220;-74
2021/04/25 10:28:57;;;;;;;1.77;0.83;;;;;;;19.65;19.43;100690.09;1701984;83;21104;-70
2021/04/25 10:31:36;;;;;;;1.73;0.70;;;;;;;19.68;19.94;100689.62;1702924;83;21517;-72
2021/04/25 10:34:08;;;;;;;3.43;0.90;;;;;;;19.79;19.92;100682.71;1702402;83;21174;-72
2021/04/25 10:36:51;;;;;;;2.97;1.00;;;;;;;19.80;20.29;100675.58;1704304;82;21383;-75
2021/04/25 10:39:44;;;;;;;1.90;0.87;;;;;;;19.75;21.00;100674.16;1703894;83;21159;-73
2021/04/25 10:42:29;;;;;;;2.03;1.10;;;;;;;19.88;21.28;100676.53;1701647;83;21511;-75
2021/04/25 10:45:03;;;;;;;2.93;1.23;;;;;;;19.80;19.98;100679.55;1695299;83;21196;-71
2021/04/25 10:47:40;;;;;;;2.87;1.10;;;;;;;19.56;20.61;100680.88;1702107;83;21214;-72
2021/04/25 10:50:23;;;;;;;2.63;1.10;;;;;;;19.37;20.36;100674.12;1701903;83;22190;-74
2021/04/25 10:52:51;;;;;;;1.87;1.00;;;;;;;19.15;21.50;100673.36;1702366;83;21278;-70
2021/04/25 10:55:32;;;;;;;3.83;1.20;;;;;;;19.14;21.77;100660.39;1703264;82;21072;-73
2021/04/25 10:58:07;;;;;;;2.85;1.22;;;;;;;19.19;21.84;100663.94;1711206;82;21213;-73
2021/04/25 11:00:41;;;;;;;2.47;0.97;;;;;;;19.22;21.91;100663.20;1705414;82;21139;-74
2021/04/25 11:03:14;;;;;;;2.80;1.20;;;;;;;19.02;22.20;100656.42;1713906;82;21203;-73
2021/04/25 11:05:44;;;;;;;2.87;1.40;;;;;;;18.69;22.41;100663.00;1738230;80;21607;-73
2021/04/25 11:08:21;;;;;;;2.53;1.07;;;;;;;18.41;22.85;100659.66;1730419;80;21703;-72
2021/04/25 11:10:55;;;;;;;1.73;0.93;;;;;;;18.39;22.20;100668.83;1731424;82;21232;-72
2021/04/25 11:13:37;;;;;;;2.47;0.87;;;;;;;18.45;21.78;100655.54;1743083;81;21591;-70
2021/04/25 11:16:19;;;;;;;1.80;0.93;;;;;;;18.55;21.27;100658.94;1738154;80;21362;-68
2021/04/25 11:19:12;;;;;;;2.83;1.10;;;;;;;18.46;22.36;100661.63;1739326;80;21377;-72
2021/04/25 11:21:53;;;;;;;2.90;1.00;;;;;;;18.39;22.31;100655.11;1729395;80;21544;-69
2021/04/25 11:24:26;;;;;;;2.43;1.00;;;;;;;18.51;21.37;100649.06;1724096;80;22141;-69
2021/04/25 11:26:59;;;;;;;1.43;0.80;;;;;;;18.64;20.96;100643.59;1742130;81;21189;-71
2021/04/25 11:29:51;;;;;;;1.73;0.73;;;;;;;18.57;21.18;100654.77;1720093;80;21201;-74
2021/04/25 11:32:28;;;;;;;1.63;0.80;;;;;;;18.42;21.30;100648.06;1747846;81;21213;-70
2021/04/25 11:35:03;;;;;;;1.10;0.63;;;;;;;18.35;20.74;100650.51;1722835;82;21568;-72
2021/04/25 11:37:32;;;;;;;1.53;0.70;;;;;;;18.29;20.85;100639.00;1739812;81;21478;-71
2021/04/25 11:40:03;;;;;;;2.00;1.03;;;;;;;18.33;21.06;100636.72;1738547;82;21208;-70
2021/04/25 11:42:50;;;;;;;1.47;0.90;;;;;;;18.35;21.35;100638.11;1736572;81;21257;-71
2021/04/25 11:45:27;;;;;;;5.73;1.40;;;;;;;18.27;21.49;100627.88;1720229;82;21240;-72
2021/04/25 11:48:02;;;;;;;2.87;1.20;;;;;;;18.24;21.83;100626.48;1729317;81;21184;-72
2021/04/25 11:50:34;;;;;;;4.50;1.33;;;;;;;18.22;21.70;100619.33;1736085;82;21140;-71
2021/04/25 11:53:02;;;;;;;2.65;1.15;;;;;;;18.17;22.06;100618.38;1740338;81;21120;-76
2021/04/25 11:55:32;;;;;;;2.03;1.17;;;;;;;18.16;22.26;100610.17;1721108;82;22119;-69
2021/04/25 11:58:00;;;;;;;2.03;0.80;;;;;;;18.10;21.78;100621.09;1732022;82;20962;-71
2021/04/25 12:00:31;;;;;;;2.20;1.43;;;;;;;17.98;21.77;100601.27;1736031;81;21082;-71
2021/04/25 12:03:04;;;;;;;2.80;1.30;;;;;;;17.96;22.02;100611.77;1724050;82;21140;-75
2021/04/25 12:05:38;;;;;;;3.57;1.20;;;;;;;17.88;22.30;100608.92;1743765;80;21917;-71
2021/04/25 12:08:11;;;;;;;2.63;1.00;;;;;;;17.75;22.40;100613.83;1746616;81;21206;-75
2021/04/25 12:10:44;;;;;;;1.90;0.90;;;;;;;17.57;22.76;100600.63;1736081;80;21479;-69
2021/04/25 12:13:17;;;;;;;2.00;0.80;;;;;;;17.39;23.06;100607.23;1748818;81;21131;-69
2021/04/25 12:15:56;;;;;;;1.97;0.90;;;;;;;17.29;23.02;100606.93;1736664;81;21149;-73
2021/04/25 12:18:28;;;;;;;2.60;1.10;;;;;;;17.31;22.63;100590.38;1737159;81;21177;-70
2021/04/25 12:21:04;;;;;;;1.93;0.90;;;;;;;17.34;22.28;100599.16;1729981;81;21243;-70
2021/04/25 12:23:36;;;;;;;2.13;0.77;;;;;;;17.45;21.83;100600.55;1692725;84;21643;-72
2021/04/25 12:26:15;;;;;;;4.10;1.20;;;;;;;17.45;21.86;100593.16;1734411;81;21483;-69
2021/04/25 12:28:53;;;;;;;2.20;1.10;;;;;;;17.44;22.18;100590.25;1695088;83;21192;-69
2021/04/25 12:31:24;;;;;;;2.13;0.70;;;;;;;17.33;22.17;100589.66;1734382;81;21161;-72
2021/04/25 12:33:56;;;;;;;1.35;0.78;;;;;;;17.13;22.17;100586.72;1690050;83;25837;-70
2021/04/25 12:36:26;;;;;;;1.55;0.90;;;;;;;17.06;22.60;100593.07;1683521;84;22235;-70
2021/04/25 12:39:05;;;;;;;2.13;1.00;;;;;;;17.07;22.03;100581.51;1740706;81;20994;-70
2021/04/25 12:41:49;;;;;;;1.13;0.50;;;;;;;17.03;22.47;100579.81;1738446;81;21185;-73
2021/04/25 12:44:22;;;;;;;3.00;1.33;;;;;;;17.01;22.54;100578.73;1740873;80;21398;-70
2021/04/25 12:46:55;;;;;;;2.77;1.07;;;;;;;16.95;22.23;100584.05;1692992;84;21271;-72
2021/04/25 12:49:41;;;;;;;2.60;0.90;;;;;;;16.83;22.49;100573.94;1738858;81;21440;-72
2021/04/25 12:52:10;;;;;;;2.63;1.20;;;;;;;16.66;22.94;100571.80;1679945;81;20931;-69
2021/04/25 12:54:45;;;;;;;3.52;1.42;;;;;;;16.52;23.19;100573.75;1762018;80;20947;-69
2021/04/25 12:57:14;;;;;;;3.23;1.20;;;;;;;16.52;23.47;100566.37;1755270;80;21920;-69
2021/04/25 12:59:44;;;;;;;2.40;1.25;;;;;;;16.57;23.66;100555.99;1753282;81;20974;-67
2021/04/25 13:04:51;;;;;;;5.70;1.27;;;;;;;16.51;23.40;100559.47;1806627;78;22254;-68
2021/04/25 13:07:39;;;;;;;1.50;0.70;;;;;;;16.39;24.04;100559.88;1794990;79;21022;-69
2021/04/25 13:10:19;;;;;;;3.47;1.00;;;;;;;16.34;22.76;100559.72;1785312;78;21192;-74
2021/04/25 13:12:53;;;;;;;4.03;1.00;;;;;;;16.28;23.30;100562.16;1793326;79;21061;-67
2021/04/25 13:15:36;;;;;;;1.80;0.80;;;;;;;16.24;23.05;100559.66;1740791;82;21500;-69
2021/04/25 13:18:14;;;;;;;2.20;0.87;;;;;;;16.23;23.32;100552.00;1727756;82;21034;-69
2021/04/25 13:20:51;;;;;;;2.37;1.20;;;;;;;16.28;23.17;100557.42;1744930;82;20963;-69
2021/04/25 13:26:10;;;;;;;2.00;1.20;;;;;;;16.50;22.83;100545.52;1813668;78;22543;-68
2021/04/25 13:28:39;;;;;;;2.33;1.27;;;;;;;16.43;22.73;100548.70;1802804;79;21479;-68
2021/04/25 13:31:10;;;;;;;2.37;1.10;;;;;;;16.36;22.58;100543.20;1802308;79;21293;-70
2021/04/25 13:33:40;;;;;;;2.80;1.45;;;;;;;16.17;22.38;100553.64;1804228;79;21351;-69
2021/04/25 13:36:10;;;;;;;3.08;1.40;;;;;;;16.07;22.89;100544.11;1735780;81;20908;-70
2021/04/25 13:38:38;;;;;;;2.80;1.30;;;;;;;15.98;22.79;100544.05;1735903;81;21468;-69
2021/04/25 13:41:07;;;;;;;3.97;1.30;;;;;;;15.80;22.76;100543.46;1764303;80;21622;-74
2021/04/25 13:43:35;;;;;;;2.30;1.10;;;;;;;15.63;22.76;100543.09;1751225;79;21195;-69
2021/04/25 13:46:03;;;;;;;3.57;1.80;;;;;;;15.54;22.83;100543.04;1764195;80;21782;-68
2021/04/25 13:48:32;;;;;;;2.67;1.70;;;;;;;15.47;22.94;100543.05;1747074;81;20986;-68
2021/04/25 13:51:00;;;;;;;2.80;1.40;;;;;;;15.46;23.31;100540.65;1747362;82;21063;-73
2021/04/25 13:53:29;;;;;;;2.87;1.10;;;;;;;15.45;23.17;100536.39;1746959;82;21210;-69
2021/04/25 13:55:58;;;;;;;2.43;1.13;;;;;;;15.40;22.49;100549.34;1747851;79;21364;-69
2021/04/25 13:58:27;;;;;;;2.33;1.10;;;;;;;15.27;22.62;100537.08;1764398;80;21186;-69
2021/04/25 14:00:57;;;;;;;2.80;1.30;;;;;;;15.19;22.95;100538.11;1766689;79;21004;-73
2021/04/25 14:03:27;;;;;;;2.70;1.07;;;;;;;15.12;23.03;100537.31;1746099;81;21084;-72
2021/04/25 14:05:55;;;;;;;2.53;0.90;;;;;;;15.02;23.06;100537.73;1751635;80;21464;-69
2021/04/25 14:08:23;;;;;;;2.50;1.40;;;;;;;14.93;23.49;100533.72;1745823;80;22659;-68
2021/04/25 14:10:52;;;;;;;1.90;1.00;;;;;;;14.90;23.68;100534.63;1757356;79;20977;-73
2021/04/25 14:13:21;;;;;;;1.90;0.97;;;;;;;14.92;23.76;100533.39;1758851;80;21221;-68
2021/04/25 14:15:50;;;;;;;1.73;0.70;;;;;;;14.90;23.75;100538.57;1777781;79;21300;-67
2021/04/25 14:18:18;;;;;;;5.67;1.20;;;;;;;14.86;23.50;100534.73;1754921;79;21522;-67
2021/04/25 14:20:48;;;;;;;2.17;1.10;;;;;;;14.82;23.47;100539.08;1787071;79;21336;-68
2021/04/25 14:23:17;;;;;;;2.30;1.10;;;;;;;14.74;23.15;100526.17;1757915;79;22313;-70
2021/04/25 14:25:47;;;;;;;1.70;0.63;;;;;;;14.66;23.19;100525.55;1766591;79;22168;-68
2021/04/25 14:28:16;;;;;;;2.10;0.82;;;;;;;14.56;23.25;100529.91;1728359;80;21850;-70
2021/04/25 14:30:44;;;;;;;2.97;0.80;;;;;;;14.46;23.11;100522.91;1765788;78;21091;-68
2021/04/25 14:33:13;;;;;;;3.07;1.33;;;;;;;14.32;23.38;100526.85;1756247;79;21629;-70
2021/04/25 14:35:43;;;;;;;2.20;1.47;;;;;;;14.20;23.49;100527.12;1761461;80;21256;-68
2021/04/25 14:38:12;;;;;;;3.17;0.97;;;;;;;14.09;23.82;100526.40;1761666;78;21830;-68
2021/04/25 14:40:40;;;;;;;1.70;0.70;;;;;;;14.04;23.88;100534.06;1757543;79;21807;-69
2021/04/25 14:43:09;;;;;;;1.87;0.70;;;;;;;14.02;24.17;100532.16;1748177;80;21940;-73
2021/04/25 14:45:37;;;;;;;1.83;0.83;;;;;;;13.98;24.13;100533.53;1728676;80;21937;-70
2021/04/25 14:48:08;;;;;;;2.80;0.90;;;;;;;13.90;24.46;100526.66;1776224;79;21692;-73
2021/04/25 14:50:37;;;;;;;2.20;0.70;;;;;;;13.79;24.51;100520.21;1745652;80;22206;-71